createdAt,value
2019-04-05T00:01:24.426Z,995.70
2019-04-05T00:06:23.786Z,995.70
2019-04-05T00:11:23.805Z,995.80
2019-04-05T00:21:22.759Z,995.70
2019-04-05T00:26:21.965Z,995.69
2019-04-05T00:31:20.766Z,995.75
2019-04-05T00:36:21.848Z,995.72
2019-04-05T00:41:21.813Z,995.72
2019-04-05T00:46:21.792Z,995.80
2019-04-05T00:51:20.791Z,995.77
2019-04-05T00:56:20.843Z,995.69
2019-04-05T01:01:20.812Z,995.59
2019-04-05T01:06:19.855Z,995.51
2019-04-05T01:11:19.781Z,995.51
2019-04-05T01:16:18.832Z,995.71
2019-04-05T01:21:18.813Z,995.74
2019-04-05T01:26:18.836Z,995.87
2019-04-05T01:36:16.847Z,995.90
2019-04-05T01:41:16.807Z,996.00
2019-04-05T01:46:17.842Z,996.11
2019-04-05T01:56:17.893Z,996.14
2019-04-05T02:01:16.884Z,996.18
2019-04-05T02:06:16.793Z,996.30
2019-04-05T02:11:16.816Z,996.30
2019-04-05T02:16:16.087Z,996.16
2019-04-05T02:21:15.878Z,996.14
2019-04-05T02:26:16.981Z,995.97
2019-04-05T02:31:16.278Z,995.97
2019-04-05T02:36:15.873Z,996.02
2019-04-05T02:41:15.884Z,995.94
2019-04-05T02:46:23.386Z,995.86
2019-04-05T02:51:15.869Z,995.84
2019-04-05T02:56:14.881Z,995.78
2019-04-05T03:01:14.813Z,995.91
2019-04-05T03:06:14.838Z,995.94
2019-04-05T03:11:14.868Z,995.94
2019-04-05T03:16:14.990Z,995.96
2019-04-05T03:21:15.074Z,995.96
2019-04-05T03:26:14.895Z,995.96
2019-04-05T03:31:13.844Z,995.94
2019-04-05T03:36:14.147Z,996.08
2019-04-05T03:41:13.840Z,996.17
2019-04-05T03:46:13.916Z,996.16
2019-04-05T03:51:13.856Z,996.20
2019-04-05T03:56:13.852Z,996.16
2019-04-05T04:01:13.869Z,996.16
2019-04-05T04:06:14.964Z,996.12
2019-04-05T04:11:15.057Z,996.10
2019-04-05T04:16:13.850Z,996.24
2019-04-05T04:21:13.948Z,996.18
2019-04-05T04:26:13.879Z,996.10
2019-04-05T04:31:13.913Z,996.32
2019-04-05T04:36:13.305Z,996.32
2019-04-05T04:41:11.967Z,996.45
2019-04-05T04:46:11.870Z,996.55
2019-04-05T04:51:11.909Z,996.66
2019-04-05T04:56:12.125Z,996.56
2019-04-05T05:01:10.882Z,996.66
2019-04-05T05:11:14.872Z,996.72
2019-04-05T05:16:10.978Z,996.82
2019-04-05T05:21:10.889Z,996.85
2019-04-05T05:26:10.286Z,996.85
2019-04-05T05:31:10.952Z,996.86
2019-04-05T05:36:11.097Z,996.80
2019-04-05T05:41:10.900Z,996.83
2019-04-05T05:46:10.923Z,996.84
2019-04-05T05:51:09.890Z,996.87
2019-04-05T05:56:08.909Z,996.79
2019-04-05T06:01:07.917Z,996.84
2019-04-05T06:06:07.215Z,996.87
2019-04-05T06:11:06.202Z,996.85
2019-04-05T06:16:06.105Z,996.85
2019-04-05T06:21:04.950Z,996.80
2019-04-05T06:26:04.123Z,996.88
2019-04-05T06:31:03.927Z,996.86
2019-04-05T06:36:05.175Z,996.91
2019-04-05T06:41:05.175Z,996.97
2019-04-05T06:46:04.184Z,996.86
2019-04-05T06:51:03.994Z,996.92
2019-04-05T06:56:03.348Z,996.87
2019-04-05T07:01:02.990Z,997.06
2019-04-05T07:06:02.905Z,997.04
2019-04-05T07:11:02.143Z,997.02
2019-04-05T07:16:01.898Z,996.97
2019-04-05T07:21:01.022Z,996.88
2019-04-05T07:26:00.063Z,996.88
2019-04-05T07:30:59.227Z,996.92
2019-04-05T07:35:57.960Z,996.98
2019-04-05T07:40:57.959Z,996.93
2019-04-05T07:45:57.134Z,996.91
2019-04-05T07:50:56.140Z,997.02
2019-04-05T07:55:55.935Z,997.03
2019-04-05T08:00:57.099Z,997.11
2019-04-05T08:05:57.242Z,997.11
2019-04-05T08:10:57.075Z,997.17
2019-04-05T08:15:56.509Z,997.28
2019-04-05T08:20:56.977Z,997.23
2019-04-05T08:25:57.240Z,997.23
2019-04-05T08:30:56.060Z,997.28
2019-04-05T08:35:56.028Z,997.25
2019-04-05T08:40:55.368Z,997.33
2019-04-05T08:45:54.509Z,997.38
2019-04-05T08:50:53.383Z,997.38
2019-04-05T09:00:52.212Z,997.25
2019-04-05T09:05:51.376Z,997.30
2019-04-05T09:10:49.995Z,997.31
2019-04-05T09:15:49.136Z,997.28
2019-04-05T09:20:49.055Z,997.29
2019-04-05T09:25:49.006Z,997.33
2019-04-05T09:30:51.768Z,997.28
2019-04-05T09:35:50.110Z,997.31
2019-04-05T09:40:49.314Z,997.21
2019-04-05T09:45:49.036Z,997.26
2019-04-05T09:50:49.049Z,997.27
2019-04-05T09:55:49.131Z,997.32
2019-04-05T10:00:49.062Z,997.21
2019-04-05T10:05:49.348Z,997.17
2019-04-05T10:10:49.373Z,997.12
2019-04-05T10:15:48.030Z,997.04
2019-04-05T10:20:48.130Z,997.01
2019-04-05T10:25:49.032Z,997.03
2019-04-05T10:30:48.417Z,997.00
2019-04-05T10:35:48.462Z,997.06
2019-04-05T10:40:47.256Z,997.09
2019-04-05T10:45:47.032Z,997.14
2019-04-05T10:50:46.002Z,997.13
2019-04-05T10:55:46.066Z,997.07
2019-04-05T11:00:45.161Z,996.98
2019-04-05T11:05:48.962Z,997.04
2019-04-05T11:10:45.436Z,997.05
2019-04-05T11:15:45.125Z,997.13
2019-04-05T11:20:45.090Z,997.16
2019-04-05T11:25:44.525Z,997.22
2019-04-05T11:30:43.406Z,997.14
2019-04-05T11:35:44.235Z,997.10
2019-04-05T11:40:41.510Z,997.04
2019-04-05T11:45:41.074Z,997.11
2019-04-05T11:50:40.425Z,997.11
2019-04-05T11:55:40.026Z,997.10
2019-04-05T12:00:40.116Z,997.18
2019-04-05T12:05:39.175Z,997.15
2019-04-05T12:10:38.112Z,997.13
2019-04-05T12:15:39.018Z,997.03
2019-04-05T12:20:48.329Z,997.03
2019-04-05T12:25:38.058Z,996.98
2019-04-05T12:30:38.051Z,996.89
2019-04-05T12:35:39.006Z,996.79
2019-04-05T12:40:40.763Z,996.84
2019-04-05T12:45:38.220Z,996.65
2019-04-05T12:50:38.055Z,996.60
2019-04-05T12:55:37.262Z,996.60
2019-04-05T13:00:38.826Z,996.55
2019-04-05T13:05:35.339Z,996.68
2019-04-05T13:10:34.374Z,996.68
2019-04-05T13:15:35.034Z,996.68
2019-04-05T13:20:34.381Z,996.62
2019-04-05T13:25:33.087Z,996.56
2019-04-05T13:30:33.203Z,996.51
2019-04-05T13:35:32.192Z,996.56
2019-04-05T13:40:33.290Z,996.43
2019-04-05T13:45:33.190Z,996.45
2019-04-05T13:50:32.112Z,996.37
2019-04-05T13:55:33.268Z,996.32
2019-04-05T14:00:32.333Z,996.29
2019-04-05T14:05:32.073Z,996.17
2019-04-05T14:10:33.148Z,996.29
2019-04-05T14:15:32.083Z,996.17
2019-04-05T14:20:31.320Z,996.23
2019-04-05T14:25:31.031Z,996.03
2019-04-05T14:30:32.971Z,996.15
2019-04-05T14:35:31.105Z,996.11
2019-04-05T14:40:32.951Z,996.11
2019-04-05T14:45:29.299Z,996.17
2019-04-05T14:50:28.849Z,996.14
2019-04-05T14:55:29.809Z,996.06
2019-04-05T15:00:29.040Z,995.97
2019-04-05T15:05:28.117Z,995.97
2019-04-05T15:10:29.063Z,995.92
2019-04-05T15:15:29.089Z,995.92
2019-04-05T15:20:28.312Z,995.81
2019-04-05T15:25:28.092Z,995.70
2019-04-05T15:30:27.441Z,995.70
2019-04-05T15:35:28.704Z,995.78
2019-04-05T15:40:28.742Z,995.70
2019-04-05T15:45:26.068Z,995.78
2019-04-05T15:50:26.124Z,995.78
2019-04-05T15:55:26.045Z,995.73
2019-04-05T16:00:26.066Z,995.80
2019-04-05T16:05:25.054Z,995.83
2019-04-05T16:10:24.171Z,995.91
2019-04-05T16:15:23.499Z,995.88
2019-04-05T16:20:23.233Z,995.90
2019-04-05T16:25:23.082Z,995.88
2019-04-05T16:30:22.158Z,996.03
2019-04-05T16:35:22.086Z,996.09
2019-04-05T16:40:22.126Z,996.11
2019-04-05T16:45:21.132Z,996.00
2019-04-05T16:50:22.115Z,996.00
2019-04-05T16:55:21.272Z,996.17
2019-04-05T17:00:22.102Z,996.09
2019-04-05T17:05:22.121Z,996.03
2019-04-05T17:10:21.531Z,996.06
2019-04-05T17:15:20.224Z,996.06
2019-04-05T17:25:18.436Z,996.14
2019-04-05T17:30:19.150Z,996.08
2019-04-05T17:35:19.944Z,996.12
2019-04-05T17:40:18.512Z,996.12
2019-04-05T17:50:17.166Z,996.09
2019-04-05T17:55:17.138Z,996.01
2019-04-05T18:00:17.307Z,996.12
2019-04-05T18:05:18.111Z,996.20
2019-04-05T18:10:18.215Z,996.28
2019-04-05T18:15:18.174Z,996.23
2019-04-05T18:20:19.135Z,996.23
2019-04-05T18:25:20.138Z,996.23
2019-04-05T18:30:20.171Z,996.33
2019-04-05T18:35:20.458Z,996.33
2019-04-05T18:45:19.090Z,996.44
2019-04-05T18:50:19.092Z,996.52
2019-04-05T18:55:19.123Z,996.52
2019-04-05T19:00:18.281Z,996.57
2019-04-05T19:05:18.191Z,996.57
2019-04-05T19:10:18.105Z,996.60
2019-04-05T19:15:17.092Z,996.62
2019-04-05T19:20:17.135Z,996.57
2019-04-05T19:25:17.146Z,996.60
2019-04-05T19:50:15.209Z,996.57
2019-04-05T19:55:15.121Z,996.57
2019-04-05T20:00:14.131Z,996.55
2019-04-05T20:05:14.105Z,996.49
2019-04-05T20:10:13.184Z,996.52
2019-04-05T20:15:12.135Z,996.55
2019-04-05T20:20:12.755Z,996.42
2019-04-05T20:25:12.427Z,996.31
2019-04-05T20:30:12.207Z,996.29
2019-04-05T20:35:12.192Z,996.34
2019-04-05T20:40:13.398Z,996.31
2019-04-05T20:45:13.119Z,996.34
2019-04-05T20:50:12.433Z,996.31
2019-04-05T20:55:12.121Z,996.31
2019-04-05T21:00:12.280Z,996.29
2019-04-05T21:05:13.186Z,996.17
2019-04-05T21:10:13.324Z,996.26
2019-04-05T21:15:13.102Z,996.36
2019-04-05T21:20:13.294Z,996.23
2019-04-05T21:25:14.156Z,996.17
2019-04-05T21:30:13.177Z,996.09
2019-04-05T21:35:13.162Z,996.07
2019-04-05T21:40:12.477Z,996.01
2019-04-05T21:45:13.182Z,995.99
2019-04-05T21:50:13.101Z,996.12
2019-04-05T21:55:12.193Z,996.15
2019-04-05T22:00:12.265Z,996.04
2019-04-05T22:05:11.405Z,996.07
2019-04-05T22:10:11.123Z,996.01
2019-04-05T22:15:10.417Z,996.04
2019-04-05T22:25:10.499Z,996.01
2019-04-05T22:30:11.192Z,996.01
2019-04-05T22:35:11.119Z,996.01
2019-04-05T22:40:10.808Z,996.09
2019-04-05T22:45:10.147Z,996.17
2019-04-05T22:50:09.338Z,996.09
2019-04-05T22:55:11.380Z,996.12
2019-04-05T23:00:09.142Z,996.01
2019-04-05T23:05:09.166Z,995.88
2019-04-05T23:10:09.214Z,996.04
2019-04-05T23:15:08.147Z,996.04
2019-04-05T23:20:08.181Z,996.12
2019-04-05T23:25:08.195Z,996.08
2019-04-05T23:30:08.120Z,996.08
2019-04-05T23:35:08.194Z,996.09
2019-04-05T23:40:07.185Z,996.08
2019-04-05T23:45:07.332Z,996.02
2019-04-05T23:50:08.134Z,995.96
2019-04-05T23:55:08.195Z,995.97
